Time;durP1;ratioP1;P1;durP2;ratioP2;P2;SDS_P1;SDS_P2;PMS_P1;PMS_P2;Temp;Humidity;BMP_temperature;BMP_pressure;BME280_temperature;BME280_humidity;BME280_pressure;Samples;Min_cycle;Max_cycle;Signal;HPM_P1;HPM_P2
2023/10/16 00:01:38;;;;;;;11.02;4.13;;;;;;;;;;6246609;28;20049;-57
2023/10/16 00:04:45;;;;;;;8.57;3.38;;;;;;;;;;6247755;28;20041;-59
2023/10/16 00:07:50;;;;;;;10.82;4.10;;;;;;;;;;6246480;28;20047;-60
2023/10/16 00:11:01;;;;;;;11.05;3.30;;;;;;;;;;6246105;28;20057;-60
2023/10/16 00:14:13;;;;;;;9.80;3.90;;;;;;;;;;6246180;28;20076;-59
2023/10/16 00:17:15;;;;;;;10.10;3.63;;;;;;;;;;6243092;28;20046;-57
2023/10/16 00:20:16;;;;;;;11.02;3.97;;;;;;;;;;6243731;28;20385;-59
2023/10/16 00:23:17;;;;;;;13.65;3.90;;;;;;;;;;6248351;28;20121;-60
2023/10/16 00:26:21;;;;;;;9.83;3.30;;;;;;;;;;6249082;28;20472;-61
2023/10/16 00:29:35;;;;;;;8.98;3.10;;;;;;;;;;6250759;28;20097;-57
2023/10/16 00:32:37;;;;;;;10.02;3.83;;;;;;;;;;6248818;28;20567;-60
2023/10/16 00:35:37;;;;;;;9.15;3.33;;;;;;;;;;6245817;28;20064;-60
2023/10/16 00:38:38;;;;;;;8.60;3.58;;;;;;;;;;6244839;28;20119;-58
2023/10/16 00:41:40;;;;;;;7.82;3.33;;;;;;;;;;6245285;28;20500;-60
2023/10/16 00:44:42;;;;;;;8.85;3.90;;;;;;;;;;6245633;28;20045;-61
2023/10/16 00:47:42;;;;;;;11.63;3.55;;;;;;;;;;6244880;28;20045;-57
2023/10/16 00:50:45;;;;;;;8.52;3.53;;;;;;;;;;6245405;28;20380;-56
2023/10/16 00:53:45;;;;;;;9.55;3.33;;;;;;;;;;6261708;28;20053;-57
2023/10/16 00:56:51;;;;;;;11.10;3.67;;;;;;;;;;6260182;28;20049;-61
2023/10/16 00:59:53;;;;;;;6.95;3.42;;;;;;;;;;6245130;28;20060;-61
2023/10/16 01:02:53;;;;;;;14.40;3.60;;;;;;;;;;6244859;28;20052;-59
2023/10/16 01:05:55;;;;;;;9.23;3.58;;;;;;;;;;6245021;28;20045;-62
2023/10/16 01:08:55;;;;;;;10.27;3.55;;;;;;;;;;6242689;28;20136;-61
2023/10/16 01:11:57;;;;;;;9.10;3.00;;;;;;;;;;6245503;28;20115;-58
2023/10/16 01:14:58;;;;;;;8.98;3.47;;;;;;;;;;6245307;28;20041;-57
2023/10/16 01:17:59;;;;;;;10.75;3.38;;;;;;;;;;6242358;28;20085;-59
2023/10/16 01:21:04;;;;;;;6.65;3.50;;;;;;;;;;6242596;28;20103;-56
2023/10/16 01:24:12;;;;;;;10.65;3.20;;;;;;;;;;6244946;28;20615;-59
2023/10/16 01:27:26;;;;;;;10.52;3.70;;;;;;;;;;6243772;28;20499;-56
2023/10/16 01:30:26;;;;;;;10.32;3.55;;;;;;;;;;6242403;28;20049;-58
2023/10/16 01:33:27;;;;;;;8.80;3.35;;;;;;;;;;6243054;28;20050;-60
2023/10/16 01:36:30;;;;;;;9.50;3.15;;;;;;;;;;6243399;28;20049;-60
2023/10/16 01:39:49;;;;;;;7.50;3.00;;;;;;;;;;6242019;28;20042;-58
2023/10/16 01:42:53;;;;;;;9.77;3.22;;;;;;;;;;6240504;28;20071;-60
2023/10/16 01:45:58;;;;;;;7.82;3.13;;;;;;;;;;6243928;28;20128;-60
2023/10/16 01:49:01;;;;;;;14.75;4.07;;;;;;;;;;6247056;28;20041;-55
2023/10/16 01:52:05;;;;;;;8.07;3.15;;;;;;;;;;6247595;28;20048;-61
2023/10/16 01:55:09;;;;;;;8.93;3.20;;;;;;;;;;6257397;28;20490;-59
2023/10/16 01:58:12;;;;;;;8.93;3.28;;;;;;;;;;6243284;28;20408;-56
2023/10/16 02:01:19;;;;;;;9.40;3.20;;;;;;;;;;6242382;28;20052;-58
2023/10/16 02:04:19;;;;;;;7.80;2.75;;;;;;;;;;6240828;28;20048;-56
2023/10/16 02:07:20;;;;;;;9.25;3.40;;;;;;;;;;6242625;28;20041;-59
2023/10/16 02:10:21;;;;;;;12.48;3.67;;;;;;;;;;6243597;28;20048;-55
2023/10/16 02:13:22;;;;;;;11.55;3.00;;;;;;;;;;6243125;28;20064;-61
2023/10/16 02:16:25;;;;;;;7.65;3.10;;;;;;;;;;6243935;28;20059;-56
2023/10/16 02:19:26;;;;;;;8.30;3.03;;;;;;;;;;6243238;28;20053;-61
2023/10/16 02:22:27;;;;;;;7.55;3.10;;;;;;;;;;6240910;28;20068;-61
2023/10/16 02:25:29;;;;;;;10.33;3.00;;;;;;;;;;6243284;28;20049;-61
2023/10/16 02:28:32;;;;;;;12.02;2.95;;;;;;;;;;6244000;28;20045;-56
2023/10/16 02:31:33;;;;;;;8.25;3.10;;;;;;;;;;6241593;28;20049;-61
2023/10/16 02:34:36;;;;;;;10.57;2.95;;;;;;;;;;6243414;28;20056;-60
2023/10/16 02:37:38;;;;;;;10.00;3.10;;;;;;;;;;6243137;28;20508;-61
2023/10/16 02:40:39;;;;;;;9.82;3.40;;;;;;;;;;6242072;28;20054;-62
2023/10/16 02:43:45;;;;;;;9.35;3.70;;;;;;;;;;6241499;28;20049;-59
2023/10/16 02:46:45;;;;;;;7.95;3.10;;;;;;;;;;6243069;28;20103;-61
2023/10/16 02:49:49;;;;;;;10.30;3.10;;;;;;;;;;6243122;28;20504;-62
2023/10/16 02:52:49;;;;;;;7.80;2.90;;;;;;;;;;6243836;28;20516;-59
2023/10/16 02:56:14;;;;;;;7.65;3.15;;;;;;;;;;6255299;28;20510;-61
2023/10/16 02:59:15;;;;;;;9.93;3.10;;;;;;;;;;6243817;28;20443;-60
2023/10/16 03:02:22;;;;;;;10.85;2.80;;;;;;;;;;6248812;28;20049;-59
2023/10/16 03:05:23;;;;;;;10.77;3.08;;;;;;;;;;6240881;28;20223;-60
2023/10/16 03:08:30;;;;;;;8.35;3.25;;;;;;;;;;6242510;28;20475;-61
2023/10/16 03:11:31;;;;;;;12.15;3.22;;;;;;;;;;6240994;28;20041;-59
2023/10/16 03:14:51;;;;;;;10.75;2.80;;;;;;;;;;6240678;28;20045;-61
2023/10/16 03:17:53;;;;;;;8.70;3.15;;;;;;;;;;6250743;28;20061;-61
2023/10/16 03:24:12;;;;;;;10.50;2.70;;;;;;;;;;6246922;28;20715;-60
2023/10/16 03:27:29;;;;;;;7.50;2.88;;;;;;;;;;6247756;28;20045;-60
2023/10/16 03:30:30;;;;;;;12.00;2.88;;;;;;;;;;6247167;28;20052;-61
2023/10/16 03:33:32;;;;;;;8.40;2.80;;;;;;;;;;6245358;28;20523;-60
2023/10/16 03:36:32;;;;;;;6.75;2.50;;;;;;;;;;6261807;28;20137;-59
2023/10/16 03:39:33;;;;;;;13.35;2.97;;;;;;;;;;6246273;28;20049;-59
2023/10/16 03:42:34;;;;;;;6.03;2.50;;;;;;;;;;6246582;28;20071;-59
2023/10/16 03:45:40;;;;;;;6.90;2.78;;;;;;;;;;6246559;28;20049;-59
2023/10/16 03:48:41;;;;;;;8.70;2.90;;;;;;;;;;6245962;28;20053;-61
2023/10/16 03:51:44;;;;;;;7.80;2.60;;;;;;;;;;6247947;28;20541;-58
2023/10/16 03:54:45;;;;;;;7.93;2.58;;;;;;;;;;6258394;28;20467;-61
2023/10/16 03:57:46;;;;;;;11.07;3.28;;;;;;;;;;6251381;28;20186;-58
2023/10/16 04:00:58;;;;;;;9.45;3.25;;;;;;;;;;6245234;28;20049;-53
2023/10/16 04:04:03;;;;;;;5.95;2.45;;;;;;;;;;6245799;28;20506;-59
2023/10/16 04:07:03;;;;;;;8.90;2.60;;;;;;;;;;6244110;28;20057;-60
2023/10/16 04:10:27;;;;;;;7.43;3.25;;;;;;;;;;6259580;28;20507;-61
2023/10/16 04:13:31;;;;;;;8.07;2.60;;;;;;;;;;6267615;28;20137;-60
2023/10/16 04:16:44;;;;;;;7.00;2.60;;;;;;;;;;6246316;28;20072;-58
2023/10/16 04:19:52;;;;;;;11.80;3.00;;;;;;;;;;6254431;28;20045;-61
2023/10/16 04:22:58;;;;;;;7.30;2.72;;;;;;;;;;6250288;28;20725;-58
2023/10/16 04:38:53;;;;;;;7.93;3.00;;;;;;;;;;6259621;28;20045;-63
2023/10/16 04:48:47;;;;;;;8.07;2.70;;;;;;;;;;6250395;28;20140;-60
2023/10/16 04:52:06;;;;;;;9.63;3.20;;;;;;;;;;6254009;28;20515;-61
2023/10/16 04:55:09;;;;;;;10.87;3.10;;;;;;;;;;6260050;28;20044;-60
2023/10/16 05:01:33;;;;;;;10.63;3.22;;;;;;;;;;6260266;28;20182;-61
2023/10/16 05:08:04;;;;;;;12.00;3.90;;;;;;;;;;6252456;28;20050;-59
2023/10/16 06:14:36;;;;;;;19.30;5.28;;;;;;;;;;6241566;28;20649;-58
2023/10/16 06:17:37;;;;;;;11.85;4.88;;;;;;;;;;6243049;28;20057;-57
2023/10/16 06:20:43;;;;;;;11.00;4.55;;;;;;;;;;6243199;28;20119;-56
2023/10/16 06:23:48;;;;;;;10.35;4.47;;;;;;;;;;6242034;28;20049;-62
2023/10/16 06:26:48;;;;;;;12.70;4.50;;;;;;;;;;6243450;28;20091;-61
2023/10/16 06:29:49;;;;;;;12.20;4.60;;;;;;;;;;6241736;28;20042;-60
2023/10/16 06:32:52;;;;;;;11.30;4.03;;;;;;;;;;6242173;28;20114;-59
2023/10/16 06:35:53;;;;;;;14.07;4.20;;;;;;;;;;6244219;28;20365;-58
2023/10/16 06:38:53;;;;;;;10.80;3.95;;;;;;;;;;6244828;28;20466;-62
2023/10/16 06:41:57;;;;;;;11.75;4.22;;;;;;;;;;6241635;28;20049;-62
2023/10/16 06:45:06;;;;;;;11.25;4.20;;;;;;;;;;6242833;28;20045;-61
2023/10/16 06:48:15;;;;;;;12.93;4.47;;;;;;;;;;6242979;28;20048;-61
2023/10/16 06:51:16;;;;;;;13.38;4.63;;;;;;;;;;6241165;28;20130;-57
2023/10/16 06:54:17;;;;;;;14.13;5.38;;;;;;;;;;6241349;28;20476;-62
2023/10/16 06:57:19;;;;;;;11.65;4.57;;;;;;;;;;6243304;28;20041;-62
2023/10/16 07:00:23;;;;;;;12.20;4.68;;;;;;;;;;6242854;28;20484;-61
2023/10/16 07:03:24;;;;;;;14.02;5.13;;;;;;;;;;6239742;28;20045;-62
2023/10/16 07:06:32;;;;;;;10.77;4.73;;;;;;;;;;6240506;28;20054;-58
2023/10/16 07:09:36;;;;;;;11.60;4.93;;;;;;;;;;6241980;28;20139;-61
2023/10/16 07:12:56;;;;;;;23.05;5.90;;;;;;;;;;6242435;28;20116;-61
2023/10/16 07:16:01;;;;;;;15.00;5.18;;;;;;;;;;6239386;28;20446;-62
2023/10/16 07:19:03;;;;;;;15.95;5.28;;;;;;;;;;6240598;28;20050;-61
2023/10/16 07:22:10;;;;;;;;;;;;;;;;;;6243950;28;20144;-60
2023/10/16 07:25:23;;;;;;;12.23;4.53;;;;;;;;;;6243087;28;19971;-61
2023/10/16 07:28:26;;;;;;;16.40;5.18;;;;;;;;;;6241657;28;20038;-62
2023/10/16 07:31:26;;;;;;;18.52;5.63;;;;;;;;;;6242761;28;20045;-59
2023/10/16 07:34:31;;;;;;;11.82;5.05;;;;;;;;;;6242390;28;20052;-60
2023/10/16 07:37:33;;;;;;;16.05;5.18;;;;;;;;;;6241904;28;20053;-60
2023/10/16 07:40:37;;;;;;;11.68;4.65;;;;;;;;;;6241542;28;20404;-57
2023/10/16 07:43:37;;;;;;;13.93;4.80;;;;;;;;;;6243056;28;20073;-61
2023/10/16 07:46:38;;;;;;;19.60;5.20;;;;;;;;;;6242472;28;20091;-62
2023/10/16 07:49:40;;;;;;;13.18;5.05;;;;;;;;;;6241884;28;20053;-61
2023/10/16 07:52:42;;;;;;;15.13;4.80;;;;;;;;;;6240934;28;20816;-60
2023/10/16 07:55:52;;;;;;;9.32;4.90;;;;;;;;;;6240366;28;20389;-60
2023/10/16 07:59:06;;;;;;;13.25;5.10;;;;;;;;;;6240192;28;20053;-61
2023/10/16 08:02:17;;;;;;;17.52;6.78;;;;;;;;;;6242052;28;20088;-61
2023/10/16 08:05:18;;;;;;;14.98;4.88;;;;;;;;;;6246665;28;20045;-60
2023/10/16 08:08:25;;;;;;;13.68;5.00;;;;;;;;;;6246038;28;20404;-62
2023/10/16 08:11:26;;;;;;;13.90;5.55;;;;;;;;;;6244373;28;20048;-59
2023/10/16 08:14:31;;;;;;;14.38;5.90;;;;;;;;;;6244147;28;20038;-61
2023/10/16 08:17:32;;;;;;;12.68;5.50;;;;;;;;;;6245119;28;20053;-61
2023/10/16 08:23:56;;;;;;;15.90;6.13;;;;;;;;;;6235658;28;20051;-61
2023/10/16 08:27:10;;;;;;;12.90;4.95;;;;;;;;;;6246342;28;20095;-57
2023/10/16 08:33:30;;;;;;;13.00;5.50;;;;;;;;;;6244184;28;20072;-62
2023/10/16 08:36:31;;;;;;;16.70;5.00;;;;;;;;;;6244747;28;20489;-60
2023/10/16 08:39:36;;;;;;;12.45;5.78;;;;;;;;;;6243741;28;20048;-59
2023/10/16 08:42:37;;;;;;;11.05;5.15;;;;;;;;;;6243366;28;21547;-62
2023/10/16 08:45:44;;;;;;;12.27;4.95;;;;;;;;;;6245854;28;20064;-59
2023/10/16 08:48:46;;;;;;;14.60;5.53;;;;;;;;;;6245961;28;20057;-62
2023/10/16 08:51:49;;;;;;;10.50;4.85;;;;;;;;;;6243930;28;20041;-57
2023/10/16 08:57:51;;;;;;;18.10;5.22;;;;;;;;;;6244912;28;20045;-60
2023/10/16 09:00:53;;;;;;;10.60;5.00;;;;;;;;;;6242693;28;20401;-60
2023/10/16 09:04:00;;;;;;;;;;;;;;;;;;6245669;28;20056;-61
2023/10/16 09:07:00;;;;;;;18.65;5.97;;;;;;;;;;6245298;28;19925;-58
2023/10/16 09:10:02;;;;;;;16.25;5.15;;;;;;;;;;6245161;28;20104;-59
2023/10/16 09:13:16;;;;;;;14.48;5.15;;;;;;;;;;6244488;28;20133;-61
2023/10/16 09:16:21;;;;;;;14.35;4.43;;;;;;;;;;6244412;28;20048;-58
2023/10/16 09:19:34;;;;;;;12.40;5.00;;;;;;;;;;6245278;28;20052;-54
2023/10/16 09:22:39;;;;;;;16.10;4.57;;;;;;;;;;6243986;28;20056;-60
2023/10/16 09:25:44;;;;;;;14.30;5.88;;;;;;;;;;6243576;28;20044;-58
2023/10/16 09:28:48;;;;;;;14.50;5.07;;;;;;;;;;6243097;28;20570;-59
2023/10/16 09:31:49;;;;;;;15.93;5.00;;;;;;;;;;6244695;28;20052;-59
2023/10/16 09:34:53;;;;;;;18.92;4.47;;;;;;;;;;6244759;28;20045;-61
2023/10/16 09:38:09;;;;;;;18.95;6.00;;;;;;;;;;6245011;28;20396;-61
2023/10/16 09:44:36;;;;;;;12.93;4.50;;;;;;;;;;6244452;28;20046;-61
2023/10/16 09:47:48;;;;;;;12.57;4.43;;;;;;;;;;6243451;28;20497;-58
2023/10/16 09:50:49;;;;;;;23.42;4.70;;;;;;;;;;6244052;28;20143;-59
2023/10/16 09:53:50;;;;;;;16.98;4.30;;;;;;;;;;6244140;28;20388;-59
2023/10/16 09:56:58;;;;;;;14.45;4.20;;;;;;;;;;6259223;28;20367;-58
2023/10/16 10:00:28;;;;;;;12.93;4.40;;;;;;;;;;6257573;28;20076;-61
2023/10/16 10:03:23;;;;;;;16.70;4.70;;;;;;;;;;6260968;28;20045;-61
2023/10/16 10:06:32;;;;;;;15.60;4.80;;;;;;;;;;6258887;28;20468;-58
2023/10/16 10:09:42;;;;;;;14.90;4.45;;;;;;;;;;6256331;28;20472;-60
2023/10/16 10:12:47;;;;;;;16.00;4.50;;;;;;;;;;6262640;28;20555;-58
2023/10/16 10:15:51;;;;;;;21.90;4.80;;;;;;;;;;6259823;28;20048;-56
2023/10/16 10:19:01;;;;;;;16.92;5.90;;;;;;;;;;6266608;28;20405;-61
2023/10/16 10:22:12;;;;;;;14.90;5.32;;;;;;;;;;6252792;28;20605;-60
2023/10/16 10:25:17;;;;;;;13.65;4.78;;;;;;;;;;6242326;28;20481;-59
2023/10/16 10:28:28;;;;;;;13.88;4.60;;;;;;;;;;6243003;28;20049;-58
2023/10/16 10:31:30;;;;;;;12.52;4.80;;;;;;;;;;6242451;28;20064;-57
2023/10/16 10:34:31;;;;;;;21.50;5.18;;;;;;;;;;6241347;28;20055;-59
2023/10/16 10:37:44;;;;;;;13.68;5.38;;;;;;;;;;6243123;28;20038;-58
2023/10/16 10:41:12;;;;;;;11.32;4.50;;;;;;;;;;6242410;28;20388;-60
2023/10/16 10:44:14;;;;;;;16.60;4.53;;;;;;;;;;6240482;28;20045;-57
2023/10/16 10:47:30;;;;;;;13.95;4.47;;;;;;;;;;6239873;28;20550;-61
2023/10/16 10:50:32;;;;;;;15.00;4.53;;;;;;;;;;6242593;28;20071;-57
2023/10/16 10:53:36;;;;;;;;;;;;;;;;;;6242970;28;20382;-56
2023/10/16 10:56:41;;;;;;;13.25;4.03;;;;;;;;;;6242206;28;20060;-59
2023/10/16 10:59:46;;;;;;;11.82;3.80;;;;;;;;;;6242443;28;20071;-61
2023/10/16 11:02:52;;;;;;;14.57;4.07;;;;;;;;;;6243253;28;20420;-58
2023/10/16 11:05:55;;;;;;;12.95;3.22;;;;;;;;;;6243429;28;20073;-59
2023/10/16 11:09:05;;;;;;;32.35;8.45;;;;;;;;;;6241967;28;20450;-62
2023/10/16 11:12:09;;;;;;;20.48;4.03;;;;;;;;;;6242402;28;20048;-60
2023/10/16 11:15:11;;;;;;;13.48;3.90;;;;;;;;;;6242280;28;20052;-60
2023/10/16 11:18:13;;;;;;;12.00;3.67;;;;;;;;;;6241559;28;20049;-59
2023/10/16 11:21:13;;;;;;;12.70;3.15;;;;;;;;;;6241084;28;20082;-60
2023/10/16 11:24:14;;;;;;;15.18;3.58;;;;;;;;;;6240158;28;20059;-55
2023/10/16 11:27:15;;;;;;;11.02;2.92;;;;;;;;;;6241768;28;20046;-60
2023/10/16 11:30:18;;;;;;;12.48;4.05;;;;;;;;;;6241441;28;20068;-61
2023/10/16 11:33:26;;;;;;;11.57;2.75;;;;;;;;;;6241938;28;20085;-57
2023/10/16 11:36:28;;;;;;;16.98;4.43;;;;;;;;;;6243559;28;20140;-58
2023/10/16 11:39:28;;;;;;;10.35;3.30;;;;;;;;;;6246893;28;20045;-62
2023/10/16 11:42:31;;;;;;;9.73;2.85;;;;;;;;;;6244176;28;20057;-59
2023/10/16 11:45:33;;;;;;;17.92;3.67;;;;;;;;;;6247401;28;20049;-57
2023/10/16 11:48:36;;;;;;;9.25;2.83;;;;;;;;;;6246084;28;20145;-51
2023/10/16 11:51:37;;;;;;;12.73;3.70;;;;;;;;;;6244907;28;20492;-61
2023/10/16 11:54:40;;;;;;;13.07;4.03;;;;;;;;;;6246782;28;20041;-58
2023/10/16 11:57:41;;;;;;;13.40;2.97;;;;;;;;;;6247186;28;20507;-60
2023/10/16 12:01:07;;;;;;;11.48;3.40;;;;;;;;;;6244923;28;20158;-54
2023/10/16 12:04:09;;;;;;;10.80;3.38;;;;;;;;;;6246558;28;20045;-61
2023/10/16 12:07:13;;;;;;;;;;;;;;;;;;6246959;28;20503;-61
2023/10/16 12:10:15;;;;;;;9.63;2.78;;;;;;;;;;6244221;28;19962;-59
2023/10/16 12:13:16;;;;;;;12.15;3.13;;;;;;;;;;6245508;28;20057;-58
2023/10/16 12:16:24;;;;;;;9.23;2.72;;;;;;;;;;6246622;28;20045;-59
2023/10/16 12:19:25;;;;;;;14.30;3.13;;;;;;;;;;6245443;28;20049;-58
2023/10/16 12:22:25;;;;;;;11.93;2.97;;;;;;;;;;6227818;28;20060;-61
2023/10/16 12:25:27;;;;;;;12.75;3.50;;;;;;;;;;6245986;28;20053;-58
2023/10/16 12:28:30;;;;;;;15.18;3.70;;;;;;;;;;6246249;28;20053;-59
2023/10/16 12:31:31;;;;;;;16.85;4.60;;;;;;;;;;6245320;28;20145;-60
2023/10/16 12:34:32;;;;;;;15.18;3.53;;;;;;;;;;6243981;28;20092;-59
2023/10/16 12:37:33;;;;;;;13.53;4.07;;;;;;;;;;6245036;28;20135;-56
2023/10/16 12:40:34;;;;;;;10.93;3.90;;;;;;;;;;6244250;28;20329;-56
2023/10/16 12:43:36;;;;;;;15.02;4.18;;;;;;;;;;6245231;28;20139;-58
2023/10/16 12:46:37;;;;;;;;;;;;;;;;;;6245320;28;20048;-51
2023/10/16 12:49:37;;;;;;;15.77;3.67;;;;;;;;;;6244931;28;20369;-54
2023/10/16 12:52:39;;;;;;;11.50;3.20;;;;;;;;;;6243509;28;20057;-55
2023/10/16 12:55:41;;;;;;;14.32;3.40;;;;;;;;;;6243638;28;20036;-59
2023/10/16 12:58:42;;;;;;;11.60;4.25;;;;;;;;;;6244821;28;20048;-61
2023/10/16 13:01:45;;;;;;;14.27;3.65;;;;;;;;;;6243906;28;20045;-60
2023/10/16 13:04:46;;;;;;;12.38;3.58;;;;;;;;;;6245294;28;20049;-58
2023/10/16 13:07:48;;;;;;;13.20;3.38;;;;;;;;;;6244669;28;20080;-61
2023/10/16 13:10:50;;;;;;;12.05;3.35;;;;;;;;;;6244946;28;20053;-60
2023/10/16 13:13:52;;;;;;;11.60;3.35;;;;;;;;;;6242373;28;20049;-57
2023/10/16 13:16:57;;;;;;;10.68;2.65;;;;;;;;;;6245050;28;20400;-60
2023/10/16 13:19:58;;;;;;;10.38;2.97;;;;;;;;;;6244557;28;20483;-59
2023/10/16 13:22:59;;;;;;;9.13;2.58;;;;;;;;;;6243453;28;20084;-61
2023/10/16 13:26:00;;;;;;;8.55;2.95;;;;;;;;;;6244177;28;20053;-60
2023/10/16 13:29:01;;;;;;;10.57;2.65;;;;;;;;;;6244828;28;20045;-58
2023/10/16 13:32:01;;;;;;;12.05;2.80;;;;;;;;;;6243855;28;20203;-61
2023/10/16 13:35:12;;;;;;;10.65;3.38;;;;;;;;;;6243578;28;20096;-60
2023/10/16 13:38:13;;;;;;;6.68;2.60;;;;;;;;;;6244267;28;20049;-60
2023/10/16 13:41:19;;;;;;;7.60;2.47;;;;;;;;;;6243182;28;20092;-61
2023/10/16 13:44:24;;;;;;;7.35;2.50;;;;;;;;;;6243531;28;20439;-61
2023/10/16 13:47:25;;;;;;;8.88;2.88;;;;;;;;;;6244127;28;20037;-60
2023/10/16 13:50:28;;;;;;;11.48;2.67;;;;;;;;;;6242865;28;20067;-57
2023/10/16 13:53:28;;;;;;;10.27;2.72;;;;;;;;;;6254098;28;20099;-61
2023/10/16 13:56:29;;;;;;;8.52;2.53;;;;;;;;;;6255271;28;20040;-60
2023/10/16 13:59:29;;;;;;;8.52;2.72;;;;;;;;;;6254744;28;20094;-57
2023/10/16 14:02:36;;;;;;;9.25;3.00;;;;;;;;;;6254999;28;20484;-61
2023/10/16 14:05:44;;;;;;;9.57;2.80;;;;;;;;;;6248762;28;20557;-59
2023/10/16 14:08:48;;;;;;;11.93;3.58;;;;;;;;;;6253566;28;20053;-61
2023/10/16 14:11:49;;;;;;;8.77;3.13;;;;;;;;;;6251188;28;20049;-56
2023/10/16 14:14:51;;;;;;;7.65;2.38;;;;;;;;;;6250927;28;20053;-57
2023/10/16 14:17:53;;;;;;;11.73;3.05;;;;;;;;;;6252550;28;20088;-59
2023/10/16 14:20:56;;;;;;;8.50;2.60;;;;;;;;;;6254101;28;20056;-60
2023/10/16 14:23:56;;;;;;;9.40;2.90;;;;;;;;;;6251958;28;20193;-61
2023/10/16 14:26:58;;;;;;;12.35;3.13;;;;;;;;;;6251138;28;20134;-63
2023/10/16 14:29:59;;;;;;;8.77;3.05;;;;;;;;;;6254608;28;20558;-56
2023/10/16 14:33:00;;;;;;;12.40;2.97;;;;;;;;;;6251156;28;20099;-60
2023/10/16 14:36:04;;;;;;;7.72;3.00;;;;;;;;;;6255302;28;20298;-61
2023/10/16 14:39:08;;;;;;;7.80;2.75;;;;;;;;;;6253228;28;20071;-54
2023/10/16 14:42:11;;;;;;;7.78;2.85;;;;;;;;;;6255300;28;20052;-61
2023/10/16 14:45:12;;;;;;;13.55;2.90;;;;;;;;;;6252089;28;20037;-62
2023/10/16 14:48:15;;;;;;;9.77;2.70;;;;;;;;;;6253085;28;20060;-59
2023/10/16 14:51:16;;;;;;;8.20;3.28;;;;;;;;;;6254630;28;20063;-62
2023/10/16 14:54:17;;;;;;;9.85;3.28;;;;;;;;;;6250293;28;20064;-61
2023/10/16 14:57:24;;;;;;;10.35;3.28;;;;;;;;;;6252075;28;20564;-54
2023/10/16 15:00:37;;;;;;;11.82;3.80;;;;;;;;;;6255194;28;20060;-56
2023/10/16 15:03:38;;;;;;;18.23;4.78;;;;;;;;;;6253599;28;20053;-58
2023/10/16 15:06:38;;;;;;;12.77;5.30;;;;;;;;;;6254248;28;20094;-59
2023/10/16 15:09:39;;;;;;;18.38;5.72;;;;;;;;;;6248583;28;20045;-58
2023/10/16 15:12:40;;;;;;;17.75;5.85;;;;;;;;;;6259435;28;20056;-60
2023/10/16 15:15:42;;;;;;;16.35;6.40;;;;;;;;;;6254507;28;20048;-54
2023/10/16 15:18:43;;;;;;;18.75;5.93;;;;;;;;;;6256220;28;20258;-59
2023/10/16 15:21:44;;;;;;;18.67;6.47;;;;;;;;;;6260771;28;20114;-63
2023/10/16 15:24:45;;;;;;;18.67;6.45;;;;;;;;;;6258651;28;20562;-57
2023/10/16 15:27:46;;;;;;;16.02;5.78;;;;;;;;;;6260088;28;20055;-60
2023/10/16 15:30:46;;;;;;;16.63;5.43;;;;;;;;;;6261144;28;20122;-61
2023/10/16 15:33:48;;;;;;;17.60;6.55;;;;;;;;;;6258103;28;20054;-58
2023/10/16 15:36:49;;;;;;;16.95;7.13;;;;;;;;;;6260716;28;20045;-56
2023/10/16 15:39:50;;;;;;;15.93;6.38;;;;;;;;;;6267749;28;20043;-59
2023/10/16 15:42:56;;;;;;;21.35;6.30;;;;;;;;;;6269590;28;20150;-60
2023/10/16 15:45:57;;;;;;;16.35;6.28;;;;;;;;;;6248334;28;20119;-54
2023/10/16 15:48:59;;;;;;;16.85;7.53;;;;;;;;;;6241264;28;20663;-57
2023/10/16 15:51:59;;;;;;;15.85;6.32;;;;;;;;;;6245933;28;20056;-60
2023/10/16 15:55:00;;;;;;;19.70;6.60;;;;;;;;;;6246543;28;20049;-58
2023/10/16 15:58:01;;;;;;;14.23;5.80;;;;;;;;;;6243369;28;20045;-59
2023/10/16 16:01:05;;;;;;;15.35;6.68;;;;;;;;;;6241766;28;20072;-60
2023/10/16 16:04:07;;;;;;;16.67;6.72;;;;;;;;;;6242885;28;20184;-59
2023/10/16 16:07:09;;;;;;;13.70;6.78;;;;;;;;;;6243683;28;20049;-61
2023/10/16 16:10:10;;;;;;;18.08;7.15;;;;;;;;;;6245561;28;20053;-61
2023/10/16 16:13:11;;;;;;;18.67;6.77;;;;;;;;;;6244945;28;20130;-58
2023/10/16 16:16:12;;;;;;;17.63;5.95;;;;;;;;;;6244056;28;20073;-58
2023/10/16 16:19:13;;;;;;;18.35;7.22;;;;;;;;;;6244688;28;20049;-60
2023/10/16 16:22:14;;;;;;;20.97;7.70;;;;;;;;;;6245526;28;20111;-60
2023/10/16 16:25:15;;;;;;;22.58;8.10;;;;;;;;;;6244107;28;20049;-59
2023/10/16 16:28:17;;;;;;;18.83;8.33;;;;;;;;;;6243704;28;20514;-56
2023/10/16 16:31:20;;;;;;;25.30;9.18;;;;;;;;;;6245941;28;20046;-58
2023/10/16 16:34:22;;;;;;;20.30;9.15;;;;;;;;;;6245282;28;20037;-59
2023/10/16 16:37:22;;;;;;;19.92;7.57;;;;;;;;;;6244333;28;20049;-59
2023/10/16 16:40:24;;;;;;;17.50;6.95;;;;;;;;;;6245506;28;20485;-57
2023/10/16 16:43:24;;;;;;;19.83;6.93;;;;;;;;;;6244988;28;20087;-60
2023/10/16 16:46:25;;;;;;;18.08;7.18;;;;;;;;;;6244210;28;20041;-60
2023/10/16 16:49:26;;;;;;;16.42;6.35;;;;;;;;;;6244599;28;20397;-59
2023/10/16 16:52:27;;;;;;;19.20;6.57;;;;;;;;;;6246149;28;20552;-59
2023/10/16 16:55:29;;;;;;;18.30;6.55;;;;;;;;;;6244426;28;20395;-60
2023/10/16 16:58:30;;;;;;;20.05;8.23;;;;;;;;;;6244017;28;20141;-53
2023/10/16 17:01:32;;;;;;;21.27;9.40;;;;;;;;;;6261125;28;20145;-57
2023/10/16 17:04:33;;;;;;;19.25;7.85;;;;;;;;;;6246010;28;20052;-56
2023/10/16 17:07:34;;;;;;;23.77;6.80;;;;;;;;;;6245398;28;20053;-57
2023/10/16 17:10:35;;;;;;;19.05;6.45;;;;;;;;;;6242413;28;20049;-59
2023/10/16 17:13:36;;;;;;;18.90;6.78;;;;;;;;;;6244723;28;20428;-56
2023/10/16 17:16:37;;;;;;;21.60;7.35;;;;;;;;;;6243412;28;20041;-59
2023/10/16 17:19:38;;;;;;;17.00;6.97;;;;;;;;;;6244071;28;20061;-58
2023/10/16 17:22:42;;;;;;;19.03;6.87;;;;;;;;;;6266956;28;20045;-58
2023/10/16 17:25:43;;;;;;;24.08;8.48;;;;;;;;;;6262395;28;20124;-59
2023/10/16 17:28:44;;;;;;;27.27;10.68;;;;;;;;;;6261423;28;20150;-58
2023/10/16 17:31:45;;;;;;;31.80;13.82;;;;;;;;;;6259892;28;20063;-57
2023/10/16 17:34:45;;;;;;;30.42;12.52;;;;;;;;;;6257994;28;20051;-53
2023/10/16 17:37:46;;;;;;;21.65;9.60;;;;;;;;;;6258456;28;20045;-59
2023/10/16 17:40:47;;;;;;;23.85;9.65;;;;;;;;;;6259429;28;20075;-58
2023/10/16 17:43:47;;;;;;;24.48;9.45;;;;;;;;;;6260835;28;20045;-60
2023/10/16 17:46:48;;;;;;;36.55;16.25;;;;;;;;;;6258186;28;20053;-59
2023/10/16 17:49:49;;;;;;;81.65;31.42;;;;;;;;;;6259926;28;20502;-60
2023/10/16 17:52:50;;;;;;;68.72;26.42;;;;;;;;;;6260393;28;20136;-58
2023/10/16 17:55:51;;;;;;;59.83;24.57;;;;;;;;;;6264379;28;20495;-54
2023/10/16 17:58:53;;;;;;;38.63;15.63;;;;;;;;;;6258533;28;20087;-54
2023/10/16 18:01:55;;;;;;;27.80;11.60;;;;;;;;;;6261027;28;20057;-60
2023/10/16 18:04:55;;;;;;;30.70;11.27;;;;;;;;;;6258574;28;20151;-56
2023/10/16 18:07:56;;;;;;;25.35;10.23;;;;;;;;;;6259596;28;20048;-52
2023/10/16 18:10:59;;;;;;;35.35;13.48;;;;;;;;;;6265782;28;20045;-59
2023/10/16 18:14:01;;;;;;;25.08;10.00;;;;;;;;;;6243855;28;20049;-59
2023/10/16 18:17:02;;;;;;;27.58;10.57;;;;;;;;;;6241000;28;20059;-58
2023/10/16 18:20:07;;;;;;;35.45;14.60;;;;;;;;;;6242203;28;20080;-54
2023/10/16 18:23:09;;;;;;;38.38;14.82;;;;;;;;;;6246641;28;20045;-58
2023/10/16 18:26:10;;;;;;;35.90;13.68;;;;;;;;;;6255242;28;20449;-56
2023/10/16 18:29:11;;;;;;;33.40;12.57;;;;;;;;;;6248809;28;20037;-60
2023/10/16 18:32:12;;;;;;;39.90;14.88;;;;;;;;;;6252443;28;20041;-59
2023/10/16 18:35:17;;;;;;;46.92;14.75;;;;;;;;;;6252168;28;20272;-57
2023/10/16 18:38:18;;;;;;;47.03;15.60;;;;;;;;;;6252564;28;20041;-58
2023/10/16 18:41:19;;;;;;;51.55;16.40;;;;;;;;;;6253885;28;20067;-60
2023/10/16 18:44:20;;;;;;;41.38;14.57;;;;;;;;;;6255037;28;20383;-62
2023/10/16 18:47:22;;;;;;;44.20;15.82;;;;;;;;;;6256120;28;20069;-58
2023/10/16 18:50:22;;;;;;;52.08;16.17;;;;;;;;;;6257129;28;20063;-59
2023/10/16 18:53:23;;;;;;;48.17;14.63;;;;;;;;;;6249635;28;20045;-60
2023/10/16 18:56:24;;;;;;;41.03;13.75;;;;;;;;;;6255866;28;20411;-61
2023/10/16 18:59:27;;;;;;;43.22;14.50;;;;;;;;;;6255186;28;20080;-58
2023/10/16 19:02:27;;;;;;;42.67;14.25;;;;;;;;;;6252857;28;20419;-62
2023/10/16 19:05:30;;;;;;;47.50;15.60;;;;;;;;;;6255152;28;20055;-54
2023/10/16 19:08:34;;;;;;;32.83;11.82;;;;;;;;;;6255641;28;20438;-56
2023/10/16 19:11:36;;;;;;;21.65;9.25;;;;;;;;;;6255227;28;20148;-59
2023/10/16 19:14:36;;;;;;;23.33;9.70;;;;;;;;;;6253308;28;20103;-60
2023/10/16 19:17:37;;;;;;;29.05;10.88;;;;;;;;;;6254194;28;20059;-58
2023/10/16 19:20:38;;;;;;;26.98;9.52;;;;;;;;;;6254714;28;20045;-55
2023/10/16 19:23:39;;;;;;;20.10;8.70;;;;;;;;;;6253267;28;20044;-57
2023/10/16 19:26:40;;;;;;;26.83;10.48;;;;;;;;;;6255841;28;20061;-61
2023/10/16 19:29:41;;;;;;;24.45;9.13;;;;;;;;;;6253093;28;20483;-58
2023/10/16 19:32:43;;;;;;;23.23;9.07;;;;;;;;;;6253041;28;20056;-56
2023/10/16 19:35:44;;;;;;;18.90;7.82;;;;;;;;;;6255495;28;20049;-60
2023/10/16 19:38:44;;;;;;;21.38;7.65;;;;;;;;;;6254538;28;20122;-60
2023/10/16 19:41:48;;;;;;;17.33;7.13;;;;;;;;;;6253200;28;20107;-63
2023/10/16 19:44:52;;;;;;;24.83;7.47;;;;;;;;;;6253595;28;20055;-62
2023/10/16 19:47:52;;;;;;;22.55;8.13;;;;;;;;;;6254845;28;20044;-61
2023/10/16 19:50:53;;;;;;;18.92;7.10;;;;;;;;;;6255268;28;20068;-57
2023/10/16 19:53:54;;;;;;;19.40;7.28;;;;;;;;;;6253855;28;20080;-60